createdAt,value
2022-11-25T00:01:19.790Z,7.60
2022-11-25T00:03:48.059Z,7.50
2022-11-25T00:06:21.044Z,7.50
2022-11-25T00:08:50.548Z,7.50
2022-11-25T00:11:18.379Z,7.50
2022-11-25T00:13:46.663Z,7.50
2022-11-25T00:16:16.782Z,7.50
2022-11-25T00:18:49.096Z,7.40
2022-11-25T00:21:18.427Z,7.40
2022-11-25T00:23:49.947Z,7.30
2022-11-25T00:26:17.381Z,7.30
2022-11-25T00:28:46.651Z,7.30
2022-11-25T00:31:21.893Z,7.20
2022-11-25T00:33:48.940Z,7.20
2022-11-25T00:36:23.707Z,7.20
2022-11-25T00:38:59.216Z,7.30
2022-11-25T00:41:46.202Z,7.20
2022-11-25T00:44:34.329Z,7.20
2022-11-25T00:47:06.239Z,7.20
2022-11-25T00:49:33.457Z,7.20
2022-11-25T00:52:00.475Z,7.20
2022-11-25T00:54:27.264Z,7.20
2022-11-25T00:56:54.186Z,7.20
2022-11-25T00:59:20.956Z,7.10
2022-11-25T01:01:47.914Z,7.20
2022-11-25T01:04:15.204Z,7.20
2022-11-25T01:06:41.978Z,7.20
2022-11-25T01:09:10.743Z,7.20
2022-11-25T01:11:37.755Z,7.20
2022-11-25T01:14:04.521Z,7.20
2022-11-25T01:16:31.969Z,7.20
2022-11-25T01:19:00.209Z,7.20
2022-11-25T01:21:30.289Z,7.20
2022-11-25T01:23:58.895Z,7.20
2022-11-25T01:26:26.068Z,7.20
2022-11-25T01:28:58.391Z,7.20
2022-11-25T01:31:27.343Z,7.20
2022-11-25T01:34:00.247Z,7.20
2022-11-25T01:36:27.583Z,7.20
2022-11-25T01:38:57.416Z,7.20
2022-11-25T01:41:26.594Z,7.20
2022-11-25T01:44:07.601Z,7.20
2022-11-25T01:47:14.807Z,7.20
2022-11-25T01:50:05.711Z,7.20
2022-11-25T01:52:39.262Z,7.20
2022-11-25T01:55:17.595Z,7.10
2022-11-25T01:58:05.145Z,7.10
2022-11-25T02:00:32.097Z,7.10
2022-11-25T02:02:59.159Z,7.00
2022-11-25T02:05:42.343Z,7.00
2022-11-25T02:08:10.672Z,6.90
2022-11-25T02:10:38.266Z,6.80
2022-11-25T02:13:05.059Z,6.80
2022-11-25T02:15:34.824Z,6.80
2022-11-25T02:18:01.833Z,6.70
2022-11-25T02:20:28.845Z,6.70
2022-11-25T02:23:26.367Z,6.70
2022-11-25T02:25:54.085Z,6.70
2022-11-25T02:28:27.160Z,6.70
2022-11-25T02:30:54.299Z,6.60
2022-11-25T02:33:21.311Z,6.70
2022-11-25T02:35:57.603Z,6.70
2022-11-25T02:38:42.541Z,6.70
2022-11-25T02:41:14.880Z,6.70
2022-11-25T02:43:41.988Z,6.70
2022-11-25T02:46:12.006Z,6.70
2022-11-25T02:49:10.184Z,6.70
2022-11-25T02:51:30.575Z,6.70
2022-11-25T02:53:57.634Z,6.70
2022-11-25T02:56:28.973Z,6.70
2022-11-25T02:58:56.357Z,6.70
2022-11-25T03:01:23.841Z,6.70
2022-11-25T03:03:50.684Z,6.70
2022-11-25T03:06:17.316Z,6.70
2022-11-25T03:08:44.186Z,6.70
2022-11-25T03:11:11.019Z,6.70
2022-11-25T03:13:37.806Z,6.70
2022-11-25T03:16:05.016Z,6.70
2022-11-25T03:18:32.234Z,6.70
2022-11-25T03:20:58.919Z,6.70
2022-11-25T03:23:26.651Z,6.70
2022-11-25T03:25:53.605Z,6.70
2022-11-25T03:28:20.283Z,6.70
2022-11-25T03:30:46.999Z,6.70
2022-11-25T03:33:13.793Z,6.70
2022-11-25T03:35:40.571Z,6.70
2022-11-25T03:38:07.369Z,6.60
2022-11-25T03:40:34.130Z,6.60
2022-11-25T03:43:00.917Z,6.60
2022-11-25T03:45:27.584Z,6.60
2022-11-25T03:47:54.368Z,6.60
2022-11-25T03:50:21.248Z,6.60
2022-11-25T03:52:47.982Z,6.50
2022-11-25T03:55:15.059Z,6.50
2022-11-25T03:57:41.877Z,6.50
2022-11-25T04:00:09.425Z,6.50
2022-11-25T04:02:36.180Z,6.50
2022-11-25T04:05:03.234Z,6.50
2022-11-25T04:07:30.064Z,6.50
2022-11-25T04:09:56.766Z,6.50
2022-11-25T04:12:42.333Z,6.50
2022-11-25T04:15:09.421Z,6.50
2022-11-25T04:17:36.175Z,6.50
2022-11-25T04:20:03.321Z,6.40
2022-11-25T04:22:30.059Z,6.40
2022-11-25T04:24:56.854Z,6.40
2022-11-25T04:27:23.716Z,6.40
2022-11-25T04:29:50.519Z,6.40
2022-11-25T04:32:17.338Z,6.30
2022-11-25T04:34:44.163Z,6.40
2022-11-25T04:37:11.107Z,6.40
2022-11-25T04:39:37.930Z,6.40
2022-11-25T04:42:23.409Z,6.40
2022-11-25T04:45:14.152Z,6.40
2022-11-25T04:47:37.150Z,6.40
2022-11-25T04:50:05.341Z,6.40
2022-11-25T04:52:33.590Z,6.40
2022-11-25T04:55:00.305Z,6.40
2022-11-25T04:57:27.078Z,6.40
2022-11-25T04:59:53.781Z,6.50
2022-11-25T05:02:23.151Z,6.50
2022-11-25T05:04:51.987Z,6.40
2022-11-25T05:07:20.638Z,6.50
2022-11-25T05:09:48.043Z,6.50
2022-11-25T05:12:19.283Z,6.40
2022-11-25T05:14:46.320Z,6.40
2022-11-25T05:17:16.018Z,6.40
2022-11-25T05:19:42.988Z,6.40
2022-11-25T05:22:14.667Z,6.30
2022-11-25T05:24:41.396Z,6.20
2022-11-25T05:27:08.571Z,6.10
2022-11-25T05:29:35.474Z,6.10
2022-11-25T05:32:02.236Z,6.00
2022-11-25T05:34:29.057Z,6.00
2022-11-25T05:36:55.904Z,6.00
2022-11-25T05:39:22.699Z,6.00
2022-11-25T05:41:49.459Z,5.90
2022-11-25T05:44:22.486Z,5.90
2022-11-25T05:46:49.777Z,5.90
2022-11-25T05:49:17.186Z,5.90
2022-11-25T05:51:44.030Z,5.90
2022-11-25T05:54:10.999Z,6.00
2022-11-25T05:56:37.882Z,6.00
2022-11-25T05:59:05.591Z,6.00
2022-11-25T06:01:33.571Z,6.00
2022-11-25T06:04:04.855Z,6.00
2022-11-25T06:06:32.327Z,6.00
2022-11-25T06:08:59.410Z,6.00
2022-11-25T06:11:26.249Z,5.90
2022-11-25T06:13:53.117Z,6.00
2022-11-25T06:16:22.349Z,6.00
2022-11-25T06:18:49.654Z,5.90
2022-11-25T06:21:17.337Z,5.90
2022-11-25T06:23:47.185Z,5.90
2022-11-25T06:26:22.537Z,5.90
2022-11-25T06:28:52.388Z,5.90
2022-11-25T06:31:21.538Z,5.90
2022-11-25T06:33:50.234Z,5.90
2022-11-25T06:36:18.484Z,5.90
2022-11-25T06:38:51.665Z,5.90
2022-11-25T06:41:19.174Z,5.90
2022-11-25T06:43:46.003Z,5.90
2022-11-25T06:46:18.546Z,5.90
2022-11-25T06:48:49.721Z,5.90
2022-11-25T06:51:17.105Z,5.90
2022-11-25T06:53:45.014Z,5.90
2022-11-25T06:56:18.694Z,5.80
2022-11-25T06:58:47.360Z,5.80
2022-11-25T07:01:22.988Z,5.90
2022-11-25T07:03:53.013Z,5.80
2022-11-25T07:06:20.807Z,5.80
2022-11-25T07:08:48.209Z,5.80
2022-11-25T07:11:26.396Z,5.80
2022-11-25T07:13:55.521Z,5.90
2022-11-25T07:16:22.441Z,5.90
2022-11-25T07:18:49.665Z,6.00
2022-11-25T07:21:20.051Z,6.00
2022-11-25T07:23:47.238Z,6.00
2022-11-25T07:26:16.664Z,6.00
2022-11-25T07:28:44.337Z,6.10
2022-11-25T07:31:24.433Z,6.10
2022-11-25T07:33:55.888Z,6.10
2022-11-25T07:36:22.722Z,6.10
2022-11-25T07:38:49.517Z,6.10
2022-11-25T07:41:19.739Z,6.10
2022-11-25T07:43:58.554Z,6.10
2022-11-25T07:46:37.183Z,6.10
2022-11-25T07:49:06.774Z,6.20
2022-11-25T07:51:37.621Z,6.20
2022-11-25T07:54:06.917Z,6.20
2022-11-25T07:56:39.089Z,6.20
2022-11-25T07:59:07.220Z,6.20
2022-11-25T08:01:34.086Z,6.20
2022-11-25T08:04:01.058Z,6.20
2022-11-25T08:06:29.931Z,6.30
2022-11-25T08:08:58.041Z,6.30
2022-11-25T08:11:27.336Z,6.30
2022-11-25T08:13:55.122Z,6.30
2022-11-25T08:16:24.297Z,6.40
2022-11-25T08:18:51.635Z,6.40
2022-11-25T08:21:18.872Z,6.40
2022-11-25T08:23:52.405Z,6.40
2022-11-25T08:26:22.856Z,6.40
2022-11-25T08:28:50.538Z,6.40
2022-11-25T08:31:24.139Z,6.40
2022-11-25T08:33:51.853Z,6.50
2022-11-25T08:36:20.026Z,6.50
2022-11-25T08:38:50.390Z,6.50
2022-11-25T08:41:30.174Z,6.50
2022-11-25T08:43:58.951Z,6.50
2022-11-25T08:46:28.479Z,6.50
2022-11-25T08:48:55.879Z,6.60
2022-11-25T08:51:26.446Z,6.60
2022-11-25T08:53:53.251Z,6.60
2022-11-25T08:56:25.912Z,6.60
2022-11-25T08:58:54.053Z,6.60
2022-11-25T09:01:22.174Z,6.60
2022-11-25T09:03:51.758Z,6.60
2022-11-25T09:06:19.544Z,6.70
2022-11-25T09:08:46.364Z,6.70
2022-11-25T09:11:13.948Z,6.70
2022-11-25T09:13:40.827Z,6.70
2022-11-25T09:16:08.995Z,6.80
2022-11-25T09:18:37.144Z,6.80
2022-11-25T09:21:13.313Z,6.90
2022-11-25T09:23:40.210Z,6.90
2022-11-25T09:26:08.313Z,7.00
2022-11-25T09:28:37.756Z,7.10
2022-11-25T09:31:09.586Z,7.10
2022-11-25T09:33:37.050Z,7.30
2022-11-25T09:36:05.955Z,7.40
2022-11-25T09:38:33.135Z,7.40
2022-11-25T09:41:16.580Z,7.50
2022-11-25T09:44:17.530Z,7.60
2022-11-25T09:47:03.858Z,7.70
2022-11-25T09:49:31.270Z,7.70
2022-11-25T09:52:13.309Z,7.70
2022-11-25T09:54:45.245Z,7.80
2022-11-25T09:57:27.026Z,7.80
2022-11-25T10:00:10.855Z,7.90
2022-11-25T10:02:55.719Z,7.90
2022-11-25T10:05:31.405Z,8.00
2022-11-25T10:08:03.326Z,8.00
2022-11-25T10:10:53.138Z,8.00
2022-11-25T10:13:45.992Z,8.00
2022-11-25T10:16:28.675Z,8.00
2022-11-25T10:19:19.758Z,8.10
2022-11-25T10:21:47.081Z,8.10
2022-11-25T10:24:17.702Z,8.10
2022-11-25T10:26:49.065Z,8.20
2022-11-25T10:29:27.050Z,8.20
2022-11-25T10:32:01.390Z,8.20
2022-11-25T10:34:42.162Z,8.20
2022-11-25T10:37:27.393Z,8.20
2022-11-25T10:39:54.206Z,8.30
2022-11-25T10:42:27.060Z,8.30
2022-11-25T10:44:54.984Z,8.30
2022-11-25T10:47:33.594Z,8.30
2022-11-25T10:50:03.796Z,8.30
2022-11-25T10:52:34.348Z,8.30
2022-11-25T10:55:20.883Z,8.30
2022-11-25T10:57:47.948Z,8.30
2022-11-25T11:00:36.535Z,8.30
2022-11-25T11:03:23.265Z,8.40
2022-11-25T11:05:52.377Z,8.40
2022-11-25T11:08:22.851Z,8.40
2022-11-25T11:11:19.409Z,8.40
2022-11-25T11:13:47.106Z,8.50
2022-11-25T11:16:39.146Z,8.50
2022-11-25T11:19:06.234Z,8.60
2022-11-25T11:21:41.690Z,8.60
2022-11-25T11:24:37.921Z,8.60
2022-11-25T11:27:25.161Z,8.70
2022-11-25T11:30:10.475Z,8.70
2022-11-25T11:32:40.790Z,8.70
2022-11-25T11:35:27.819Z,8.80
2022-11-25T11:38:01.630Z,8.80
2022-11-25T11:40:38.970Z,8.80
2022-11-25T11:43:20.637Z,8.80
2022-11-25T11:46:05.933Z,8.80
2022-11-25T11:48:32.658Z,8.80
2022-11-25T11:51:28.218Z,8.80
2022-11-25T11:54:27.195Z,8.80
2022-11-25T11:56:59.942Z,8.90
2022-11-25T11:59:35.984Z,8.90
2022-11-25T12:02:26.348Z,8.90
2022-11-25T12:05:04.848Z,8.90
2022-11-25T12:07:54.413Z,8.90
2022-11-25T12:10:27.094Z,9.00
2022-11-25T12:12:59.210Z,8.90
2022-11-25T12:16:00.581Z,9.00
2022-11-25T12:18:33.474Z,9.00
2022-11-25T12:21:05.573Z,9.00
2022-11-25T12:23:44.814Z,9.00
2022-11-25T12:26:40.401Z,9.00
2022-11-25T12:29:12.500Z,9.00
2022-11-25T12:31:45.950Z,9.00
2022-11-25T12:34:21.751Z,9.00
2022-11-25T12:36:49.547Z,9.00
2022-11-25T12:39:16.225Z,9.00
2022-11-25T12:41:49.013Z,9.00
2022-11-25T12:44:40.421Z,9.00
2022-11-25T12:47:11.110Z,9.10
2022-11-25T12:49:46.951Z,9.10
2022-11-25T12:52:19.648Z,9.10
2022-11-25T12:55:03.965Z,9.10
2022-11-25T12:57:51.813Z,9.10
2022-11-25T13:00:47.072Z,9.10
2022-11-25T13:03:51.429Z,9.10
2022-11-25T13:06:21.048Z,9.10
2022-11-25T13:09:06.514Z,9.10
2022-11-25T13:11:48.640Z,9.10
2022-11-25T13:14:28.021Z,9.10
2022-11-25T13:16:57.404Z,9.10
2022-11-25T13:19:24.672Z,9.10
2022-11-25T13:22:02.703Z,9.20
2022-11-25T13:24:34.062Z,9.20
2022-11-25T13:27:01.864Z,9.20
2022-11-25T13:29:28.671Z,9.20
2022-11-25T13:32:02.582Z,9.20
2022-11-25T13:34:30.867Z,9.20
2022-11-25T13:37:02.574Z,9.30
2022-11-25T13:39:38.536Z,9.30
2022-11-25T13:42:26.682Z,9.30
2022-11-25T13:44:54.846Z,9.30
2022-11-25T13:47:44.860Z,9.30
2022-11-25T13:50:21.744Z,9.30
2022-11-25T13:53:08.118Z,9.40
2022-11-25T13:55:41.420Z,9.50
2022-11-25T13:58:11.446Z,9.70
2022-11-25T14:00:59.547Z,9.80
2022-11-25T14:03:29.063Z,9.80
2022-11-25T14:06:13.450Z,9.90
2022-11-25T14:08:54.503Z,10.00
2022-11-25T14:11:44.132Z,10.00
2022-11-25T14:14:25.963Z,10.00
2022-11-25T14:17:14.434Z,10.00
2022-11-25T14:20:04.446Z,10.00
2022-11-25T14:22:43.347Z,10.00
2022-11-25T14:25:23.279Z,10.00
2022-11-25T14:28:03.851Z,10.00
2022-11-25T14:30:32.642Z,10.00
2022-11-25T14:33:04.052Z,10.00
2022-11-25T14:35:45.263Z,10.00
2022-11-25T14:38:42.382Z,10.00
2022-11-25T14:41:17.776Z,10.00
2022-11-25T14:43:50.670Z,10.00
2022-11-25T14:46:22.277Z,10.00
2022-11-25T14:49:00.565Z,10.00
2022-11-25T14:51:33.910Z,10.00
2022-11-25T14:54:01.008Z,10.00
2022-11-25T14:56:33.846Z,10.00
2022-11-25T14:59:01.170Z,10.00
2022-11-25T15:01:30.272Z,10.00
2022-11-25T15:04:12.149Z,10.00
2022-11-25T15:06:48.130Z,10.00
2022-11-25T15:09:25.361Z,9.90
2022-11-25T15:12:04.855Z,10.00
2022-11-25T15:14:38.826Z,9.90
2022-11-25T15:17:17.260Z,10.00
2022-11-25T15:19:44.344Z,10.00
2022-11-25T15:22:29.248Z,10.00
2022-11-25T15:25:08.107Z,10.00
2022-11-25T15:27:34.935Z,9.90
2022-11-25T15:30:01.728Z,9.90
2022-11-25T15:32:30.247Z,9.90
2022-11-25T15:35:00.448Z,9.90
2022-11-25T15:37:28.251Z,9.90
2022-11-25T15:40:36.696Z,9.90
2022-11-25T15:43:07.357Z,9.90
2022-11-25T15:45:46.190Z,9.90
2022-11-25T15:48:37.459Z,9.90
2022-11-25T15:51:20.789Z,9.90
2022-11-25T15:53:54.346Z,9.90
2022-11-25T15:56:25.503Z,9.90
2022-11-25T15:58:55.086Z,9.90
2022-11-25T16:01:24.878Z,9.90
2022-11-25T16:03:52.359Z,9.90
2022-11-25T16:06:22.217Z,9.90
2022-11-25T16:08:57.441Z,9.90
2022-11-25T16:11:25.969Z,9.90
2022-11-25T16:13:53.672Z,9.90
2022-11-25T16:16:24.699Z,9.90
2022-11-25T16:19:09.907Z,9.90
2022-11-25T16:21:36.783Z,9.90
2022-11-25T16:24:06.595Z,9.90
2022-11-25T16:26:37.852Z,9.90
2022-11-25T16:29:17.715Z,9.90
2022-11-25T16:31:44.578Z,9.90
2022-11-25T16:34:20.191Z,9.80
2022-11-25T16:36:47.223Z,9.80
2022-11-25T16:39:14.347Z,9.80
2022-11-25T16:41:42.457Z,9.80
2022-11-25T16:44:27.865Z,9.80
2022-11-25T16:46:55.328Z,9.80
2022-11-25T16:49:22.785Z,9.80
2022-11-25T16:51:54.356Z,9.70
2022-11-25T16:54:22.328Z,9.80
2022-11-25T16:56:52.365Z,9.70
2022-11-25T16:59:41.052Z,9.70
2022-11-25T17:02:22.311Z,9.70
2022-11-25T17:04:49.876Z,9.70
2022-11-25T17:07:34.526Z,9.70
2022-11-25T17:10:02.039Z,9.70
2022-11-25T17:12:32.955Z,9.70
2022-11-25T17:15:01.177Z,9.70
2022-11-25T17:17:29.001Z,9.70
2022-11-25T17:19:56.027Z,9.70
2022-11-25T17:22:26.291Z,9.70
2022-11-25T17:24:53.915Z,9.70
2022-11-25T17:27:28.698Z,9.70
2022-11-25T17:29:57.857Z,9.60
2022-11-25T17:32:25.966Z,9.60
2022-11-25T17:34:54.306Z,9.60
2022-11-25T17:37:23.845Z,9.60
2022-11-25T17:39:54.419Z,9.60
2022-11-25T17:42:30.214Z,9.60
2022-11-25T17:44:57.270Z,9.60
2022-11-25T17:47:24.120Z,9.60
2022-11-25T17:49:52.012Z,9.60
2022-11-25T17:52:18.987Z,9.60
2022-11-25T17:54:45.831Z,9.60
2022-11-25T17:57:17.729Z,9.60
2022-11-25T17:59:44.546Z,9.60
2022-11-25T18:02:22.284Z,9.60
2022-11-25T18:04:49.791Z,9.60
2022-11-25T18:07:16.892Z,9.60
2022-11-25T18:09:44.587Z,9.60
2022-11-25T18:12:23.231Z,9.60
2022-11-25T18:14:50.141Z,9.60
2022-11-25T18:17:19.108Z,9.60
2022-11-25T18:19:52.911Z,9.60
2022-11-25T18:22:21.645Z,9.70
2022-11-25T18:24:48.444Z,9.60
2022-11-25T18:27:25.065Z,9.60
2022-11-25T18:29:53.113Z,9.60
2022-11-25T18:32:21.075Z,9.60
2022-11-25T18:34:48.151Z,9.60
2022-11-25T18:37:15.042Z,9.60
2022-11-25T18:39:42.443Z,9.60
2022-11-25T18:42:22.726Z,9.60
2022-11-25T18:44:49.754Z,9.60
2022-11-25T18:47:16.712Z,9.60
2022-11-25T18:49:44.105Z,9.60
2022-11-25T18:52:11.287Z,9.60
2022-11-25T18:54:38.625Z,9.60
2022-11-25T18:57:06.029Z,9.60
2022-11-25T18:59:35.444Z,9.70
2022-11-25T19:02:02.839Z,10.20
2022-11-25T19:04:30.059Z,10.60
2022-11-25T19:06:56.936Z,11.00
2022-11-25T19:09:23.890Z,11.40
2022-11-25T19:11:54.369Z,11.90
2022-11-25T19:14:32.184Z,12.20
2022-11-25T19:17:06.418Z,12.50
2022-11-25T19:19:33.794Z,12.80
2022-11-25T19:22:02.664Z,12.90
2022-11-25T19:24:29.685Z,12.90
2022-11-25T19:26:57.691Z,12.60
2022-11-25T19:29:43.911Z,12.30
2022-11-25T19:32:25.818Z,12.10
2022-11-25T19:34:57.652Z,11.80
2022-11-25T19:37:24.670Z,11.60
2022-11-25T19:39:53.089Z,11.40
2022-11-25T19:42:20.355Z,11.30
2022-11-25T19:44:47.951Z,11.10
2022-11-25T19:47:26.996Z,11.00
2022-11-25T19:49:58.520Z,10.90
2022-11-25T19:52:36.103Z,10.80
2022-11-25T19:55:17.637Z,10.70
2022-11-25T19:57:44.846Z,10.60
2022-11-25T20:00:14.513Z,10.50
2022-11-25T20:02:42.493Z,10.50
2022-11-25T20:05:10.479Z,10.40
2022-11-25T20:07:38.614Z,10.30
2022-11-25T20:10:17.094Z,10.30
2022-11-25T20:12:44.608Z,10.20
2022-11-25T20:15:12.603Z,10.20
2022-11-25T20:17:44.330Z,10.20
2022-11-25T20:20:17.970Z,10.10
2022-11-25T20:22:53.405Z,10.10
2022-11-25T20:25:20.681Z,10.00
2022-11-25T20:27:48.078Z,10.00
2022-11-25T20:30:21.447Z,10.00
2022-11-25T20:32:48.565Z,9.90
2022-11-25T20:35:15.738Z,9.90
2022-11-25T20:37:58.298Z,9.90
2022-11-25T20:40:35.230Z,9.90
2022-11-25T20:43:02.683Z,9.90
2022-11-25T20:45:29.643Z,9.90
2022-11-25T20:47:56.795Z,9.90
2022-11-25T20:50:24.090Z,9.80
2022-11-25T20:52:51.412Z,9.90
2022-11-25T20:55:23.821Z,9.80
2022-11-25T20:57:52.697Z,9.80
2022-11-25T21:00:26.535Z,9.80
2022-11-25T21:02:55.122Z,9.80
2022-11-25T21:05:22.606Z,9.80
2022-11-25T21:07:50.913Z,9.70
2022-11-25T21:10:34.821Z,9.70
2022-11-25T21:13:09.578Z,9.60
2022-11-25T21:15:36.971Z,9.60
2022-11-25T21:18:04.295Z,9.60
2022-11-25T21:20:31.332Z,9.50
2022-11-25T21:22:58.893Z,9.50
2022-11-25T21:25:26.681Z,9.40
2022-11-25T21:27:53.996Z,9.40
2022-11-25T21:30:34.421Z,9.40
2022-11-25T21:33:01.895Z,9.30
2022-11-25T21:35:34.922Z,9.30
2022-11-25T21:38:07.316Z,9.30
2022-11-25T21:40:38.718Z,9.30
2022-11-25T21:43:07.068Z,9.20
2022-11-25T21:45:34.010Z,9.20
2022-11-25T21:48:00.832Z,9.20
2022-11-25T21:50:29.986Z,9.20
2022-11-25T21:52:57.583Z,9.20
2022-11-25T21:55:25.158Z,9.10
2022-11-25T21:57:52.081Z,9.10
2022-11-25T22:00:24.947Z,9.10
2022-11-25T22:02:52.775Z,9.10
2022-11-25T22:05:21.531Z,9.00
2022-11-25T22:07:48.646Z,9.00
2022-11-25T22:10:16.733Z,9.00
2022-11-25T22:12:46.046Z,9.00
2022-11-25T22:15:21.081Z,9.00
2022-11-25T22:17:56.043Z,8.90
2022-11-25T22:20:34.156Z,9.00
2022-11-25T22:23:01.693Z,8.90
2022-11-25T22:25:31.309Z,9.00
2022-11-25T22:27:58.300Z,8.90
2022-11-25T22:30:25.197Z,9.00
2022-11-25T22:33:03.482Z,8.90
2022-11-25T22:35:30.298Z,8.90
2022-11-25T22:37:57.046Z,8.90
2022-11-25T22:40:24.288Z,8.90
2022-11-25T22:42:52.084Z,8.90
2022-11-25T22:45:32.790Z,8.90
2022-11-25T22:48:03.231Z,8.90
2022-11-25T22:50:32.176Z,8.90
2022-11-25T22:53:00.760Z,8.90
2022-11-25T22:55:33.256Z,8.90
2022-11-25T22:58:01.857Z,8.90
2022-11-25T23:00:32.600Z,8.90
2022-11-25T23:03:00.550Z,8.90
2022-11-25T23:05:33.398Z,8.90
2022-11-25T23:08:21.053Z,8.90
2022-11-25T23:10:48.841Z,8.90
2022-11-25T23:13:20.556Z,8.90
2022-11-25T23:15:53.267Z,8.90
2022-11-25T23:18:38.941Z,8.90
2022-11-25T23:21:14.237Z,8.80
2022-11-25T23:23:41.081Z,8.80
2022-11-25T23:26:10.898Z,8.90
2022-11-25T23:28:37.727Z,8.80
2022-11-25T23:31:05.293Z,8.80
2022-11-25T23:33:41.036Z,8.80
2022-11-25T23:36:39.767Z,8.80
2022-11-25T23:39:06.659Z,8.80
2022-11-25T23:41:34.600Z,8.80
2022-11-25T23:44:20.481Z,8.80
2022-11-25T23:46:48.381Z,8.80
2022-11-25T23:49:33.388Z,8.80
2022-11-25T23:52:07.525Z,8.80
2022-11-25T23:54:45.909Z,8.80
2022-11-25T23:57:20.043Z,8.80
2022-11-25T23:59:47.889Z,8.80
